createdAt,value
2019-03-23T00:01:57.795Z,9.90
2019-03-23T00:04:26.342Z,9.90
2019-03-23T00:06:54.801Z,9.90
2019-03-23T00:09:23.359Z,9.90
2019-03-23T00:11:51.816Z,9.80
2019-03-23T00:14:20.375Z,9.80
2019-03-23T00:16:48.904Z,9.70
2019-03-23T00:19:17.648Z,9.60
2019-03-23T00:21:46.204Z,9.50
2019-03-23T00:24:14.730Z,9.50
2019-03-23T00:26:43.219Z,9.50
2019-03-23T00:29:11.810Z,9.50
2019-03-23T00:31:40.331Z,9.40
2019-03-23T00:34:08.807Z,9.40
2019-03-23T00:36:41.503Z,9.30
2019-03-23T00:39:07.599Z,9.40
2019-03-23T00:41:36.122Z,9.30
2019-03-23T00:44:04.671Z,9.20
2019-03-23T00:46:33.127Z,9.10
2019-03-23T00:49:01.603Z,9.00
2019-03-23T00:51:30.063Z,8.90
2019-03-23T00:53:58.774Z,8.90
2019-03-23T00:56:27.255Z,8.80
2019-03-23T00:58:55.712Z,8.90
2019-03-23T01:01:24.335Z,8.80
2019-03-23T01:03:52.873Z,8.80
2019-03-23T01:06:21.417Z,8.80
2019-03-23T01:08:49.867Z,8.80
2019-03-23T01:11:18.395Z,8.70
2019-03-23T01:13:46.943Z,8.70
2019-03-23T01:16:15.394Z,8.60
2019-03-23T01:18:43.874Z,8.60
2019-03-23T01:21:12.327Z,8.50
2019-03-23T01:23:40.809Z,8.40
2019-03-23T01:26:09.362Z,8.30
2019-03-23T01:28:37.896Z,8.30
2019-03-23T01:31:06.347Z,8.20
2019-03-23T01:33:35.163Z,8.20
2019-03-23T01:36:03.954Z,8.10
2019-03-23T01:38:32.403Z,8.10
2019-03-23T01:41:00.882Z,8.10
2019-03-23T01:43:29.410Z,8.10
2019-03-23T01:45:57.891Z,8.00
2019-03-23T01:48:26.414Z,8.00
2019-03-23T01:50:54.895Z,8.00
2019-03-23T01:53:23.343Z,8.00
2019-03-23T01:55:52.221Z,8.00
2019-03-23T01:58:20.751Z,7.90
2019-03-23T02:00:49.239Z,7.90
2019-03-23T02:03:17.827Z,7.90
2019-03-23T02:05:46.450Z,7.90
2019-03-23T02:08:14.910Z,7.80
2019-03-23T02:10:43.460Z,7.80
2019-03-23T02:13:11.919Z,7.80
2019-03-23T02:15:40.701Z,7.80
2019-03-23T02:18:09.294Z,7.70
2019-03-23T02:20:37.779Z,7.70
2019-03-23T02:23:06.227Z,7.70
2019-03-23T02:25:34.759Z,7.70
2019-03-23T02:28:03.235Z,7.60
2019-03-23T02:30:31.693Z,7.50
2019-03-23T02:33:00.239Z,7.50
2019-03-23T02:35:29.065Z,7.40
2019-03-23T02:37:57.937Z,7.30
2019-03-23T02:40:26.397Z,7.30
2019-03-23T02:42:54.951Z,7.30
2019-03-23T02:45:23.413Z,7.30
2019-03-23T02:47:51.968Z,7.20
2019-03-23T02:50:20.502Z,7.20
2019-03-23T02:52:49.057Z,7.20
2019-03-23T02:55:17.916Z,7.20
2019-03-23T02:57:46.392Z,7.10
2019-03-23T03:00:16.555Z,7.10
2019-03-23T03:02:45.079Z,7.10
2019-03-23T03:05:14.000Z,7.00
2019-03-23T03:07:43.827Z,7.00
2019-03-23T03:10:15.736Z,6.90
2019-03-23T03:12:44.282Z,6.90
2019-03-23T03:15:13.239Z,6.90
2019-03-23T03:17:41.705Z,6.80
2019-03-23T03:20:10.905Z,6.80
2019-03-23T03:22:39.756Z,6.80
2019-03-23T03:25:09.264Z,6.80
2019-03-23T03:27:37.840Z,6.70
2019-03-23T03:30:08.864Z,6.70
2019-03-23T03:32:37.477Z,6.60
2019-03-23T03:35:06.789Z,6.60
2019-03-23T03:37:35.399Z,6.60
2019-03-23T03:40:05.721Z,6.60
2019-03-23T03:42:34.463Z,6.50
2019-03-23T03:45:03.713Z,6.40
2019-03-23T03:47:32.251Z,6.40
2019-03-23T03:50:00.781Z,6.30
2019-03-23T03:52:29.714Z,6.30
2019-03-23T03:54:58.572Z,6.30
2019-03-23T03:57:27.366Z,6.30
2019-03-23T03:59:55.897Z,6.20
2019-03-23T04:02:24.447Z,6.30
2019-03-23T04:04:52.905Z,6.20
2019-03-23T04:07:21.805Z,6.20
2019-03-23T04:09:50.342Z,6.20
2019-03-23T04:12:18.896Z,6.10
2019-03-23T04:14:47.429Z,6.10
2019-03-23T04:17:15.964Z,6.10
2019-03-23T04:19:44.523Z,6.00
2019-03-23T04:22:13.061Z,6.00
2019-03-23T04:24:41.616Z,5.90
2019-03-23T04:27:10.373Z,5.90
2019-03-23T04:29:38.937Z,5.80
2019-03-23T04:32:07.474Z,5.80
2019-03-23T04:34:36.033Z,5.70
2019-03-23T04:37:04.708Z,5.70
2019-03-23T04:39:33.188Z,5.70
2019-03-23T04:42:01.644Z,5.60
2019-03-23T04:44:30.136Z,5.60
2019-03-23T04:46:58.667Z,5.60
2019-03-23T04:49:27.295Z,5.50
2019-03-23T04:51:55.779Z,5.50
2019-03-23T04:54:24.588Z,5.50
2019-03-23T04:56:53.076Z,5.50
2019-03-23T04:59:21.608Z,5.40
2019-03-23T05:01:50.181Z,5.40
2019-03-23T05:04:18.707Z,5.40
2019-03-23T05:06:47.187Z,5.40
2019-03-23T05:09:15.643Z,5.40
2019-03-23T05:11:44.134Z,5.30
2019-03-23T05:14:12.655Z,5.30
2019-03-23T05:16:41.139Z,5.30
2019-03-23T05:19:09.588Z,5.30
2019-03-23T05:21:38.076Z,5.20
2019-03-23T05:24:06.541Z,5.20
2019-03-23T05:26:35.072Z,5.20
2019-03-23T05:29:03.552Z,5.30
2019-03-23T05:31:32.422Z,5.20
2019-03-23T05:34:00.909Z,5.20
2019-03-23T05:36:29.439Z,5.20
2019-03-23T05:38:57.915Z,5.20
2019-03-23T05:41:26.443Z,5.10
2019-03-23T05:43:54.999Z,5.20
2019-03-23T05:46:23.452Z,5.10
2019-03-23T05:48:51.939Z,5.20
2019-03-23T05:51:20.396Z,5.20
2019-03-23T05:53:49.168Z,5.30
2019-03-23T05:56:17.694Z,5.30
2019-03-23T05:58:46.255Z,5.30
2019-03-23T06:01:14.912Z,5.30
2019-03-23T06:03:43.368Z,5.30
2019-03-23T06:06:11.851Z,5.30
2019-03-23T06:08:40.311Z,5.20
2019-03-23T06:11:08.794Z,5.30
2019-03-23T06:13:37.535Z,5.30
2019-03-23T06:16:06.544Z,5.30
2019-03-23T06:18:34.999Z,5.30
2019-03-23T06:21:03.792Z,5.30
2019-03-23T06:23:32.256Z,5.30
2019-03-23T06:26:00.813Z,5.30
2019-03-23T06:28:29.343Z,5.40
2019-03-23T06:30:57.828Z,5.40
2019-03-23T06:33:26.279Z,5.40
2019-03-23T06:35:54.740Z,5.30
2019-03-23T06:38:23.573Z,5.30
2019-03-23T06:40:52.362Z,5.40
2019-03-23T06:43:21.253Z,5.50
2019-03-23T06:45:50.047Z,5.60
2019-03-23T06:48:18.600Z,5.60
2019-03-23T06:50:47.411Z,5.70
2019-03-23T06:53:15.895Z,5.70
2019-03-23T06:55:44.352Z,5.80
2019-03-23T06:58:12.907Z,5.80
2019-03-23T07:00:41.367Z,5.90
2019-03-23T07:03:10.129Z,5.90
2019-03-23T07:05:38.731Z,6.00
2019-03-23T07:08:07.293Z,6.10
2019-03-23T07:10:36.091Z,6.10
2019-03-23T07:13:04.619Z,6.10
2019-03-23T07:15:33.101Z,6.20
2019-03-23T07:18:01.564Z,6.20
2019-03-23T07:20:30.128Z,6.30
2019-03-23T07:22:58.663Z,6.30
2019-03-23T07:25:27.227Z,6.40
2019-03-23T07:27:55.756Z,6.50
2019-03-23T07:30:24.308Z,6.60
2019-03-23T07:32:52.763Z,6.70
2019-03-23T07:35:21.325Z,6.80
2019-03-23T07:37:49.923Z,6.90
2019-03-23T07:40:18.470Z,7.00
2019-03-23T07:42:46.936Z,7.10
2019-03-23T07:45:16.340Z,7.10
2019-03-23T07:47:44.871Z,7.20
2019-03-23T07:50:15.864Z,7.30
2019-03-23T07:52:44.647Z,7.40
2019-03-23T07:55:14.546Z,7.50
2019-03-23T07:57:43.411Z,7.50
2019-03-23T08:00:14.437Z,7.60
2019-03-23T08:02:43.111Z,7.70
2019-03-23T08:05:11.664Z,7.80
2019-03-23T08:07:40.124Z,7.90
2019-03-23T08:10:09.348Z,8.00
2019-03-23T08:12:37.871Z,8.10
2019-03-23T08:15:08.510Z,8.10
2019-03-23T08:17:37.493Z,8.20
2019-03-23T08:20:07.366Z,8.30
2019-03-23T08:22:35.921Z,8.50
2019-03-23T08:25:06.392Z,8.60
2019-03-23T08:27:34.954Z,8.60
2019-03-23T08:30:04.461Z,8.70
2019-03-23T08:32:32.920Z,8.80
2019-03-23T08:35:01.400Z,9.00
2019-03-23T08:37:29.872Z,9.10
2019-03-23T08:39:58.359Z,9.20
2019-03-23T08:42:27.091Z,9.30
2019-03-23T08:44:55.576Z,9.40
2019-03-23T08:47:24.039Z,9.50
2019-03-23T08:49:52.597Z,9.60
2019-03-23T08:52:21.237Z,9.80
2019-03-23T08:54:49.778Z,9.90
2019-03-23T08:57:18.699Z,10.00
2019-03-23T08:59:47.159Z,10.00
2019-03-23T09:02:15.653Z,10.10
2019-03-23T09:04:44.187Z,10.30
2019-03-23T09:07:12.752Z,10.40
2019-03-23T09:09:42.088Z,10.60
2019-03-23T09:12:10.571Z,10.90
2019-03-23T09:14:39.034Z,11.20
2019-03-23T09:17:07.519Z,11.50
2019-03-23T09:19:35.983Z,11.80
2019-03-23T09:22:04.661Z,12.10
2019-03-23T09:24:33.231Z,12.50
2019-03-23T09:27:01.764Z,12.90
2019-03-23T09:29:30.396Z,13.40
2019-03-23T09:31:58.940Z,14.00
2019-03-23T09:34:27.499Z,14.50
2019-03-23T09:36:56.245Z,15.70
2019-03-23T09:39:24.808Z,17.20
2019-03-23T09:41:53.348Z,18.80
2019-03-23T09:44:21.905Z,20.60
2019-03-23T09:46:50.367Z,22.10
2019-03-23T09:49:19.270Z,24.20
2019-03-23T09:51:47.812Z,25.90
2019-03-23T09:54:16.303Z,27.00
2019-03-23T09:56:44.819Z,28.50
2019-03-23T09:59:13.299Z,29.40
2019-03-23T10:01:42.183Z,31.10
2019-03-23T10:04:10.643Z,32.00
2019-03-23T10:06:39.127Z,32.80
2019-03-23T10:09:07.743Z,33.50
2019-03-23T10:11:36.298Z,34.60
2019-03-23T10:14:05.338Z,35.60
2019-03-23T10:16:33.876Z,36.30
2019-03-23T10:19:02.368Z,36.90
2019-03-23T10:21:30.831Z,37.60
2019-03-23T10:23:59.315Z,38.60
2019-03-23T10:26:27.780Z,39.10
2019-03-23T10:28:56.331Z,39.20
2019-03-23T10:31:24.800Z,39.60
2019-03-23T10:33:53.260Z,39.90
2019-03-23T10:36:21.831Z,39.90
2019-03-23T10:38:50.295Z,39.80
2019-03-23T10:41:18.992Z,40.40
2019-03-23T10:43:47.456Z,39.80
2019-03-23T10:46:15.948Z,40.00
2019-03-23T10:48:44.475Z,40.00
2019-03-23T10:51:12.935Z,40.10
2019-03-23T10:53:41.419Z,39.80
2019-03-23T10:56:09.951Z,39.80
2019-03-23T10:58:38.440Z,39.60
2019-03-23T11:01:06.899Z,39.40
2019-03-23T11:03:35.463Z,39.90
2019-03-23T11:06:03.995Z,40.40
2019-03-23T11:08:32.563Z,41.20
2019-03-23T11:11:01.095Z,40.90
2019-03-23T11:13:29.583Z,40.60
2019-03-23T11:15:58.048Z,40.50
2019-03-23T11:18:26.542Z,41.30
2019-03-23T11:20:55.008Z,42.60
2019-03-23T11:23:23.815Z,42.70
2019-03-23T11:25:52.603Z,42.30
2019-03-23T11:28:21.067Z,41.70
2019-03-23T11:30:49.552Z,41.50
2019-03-23T11:33:18.040Z,40.90
2019-03-23T11:35:46.618Z,40.60
2019-03-23T11:38:15.192Z,40.00
2019-03-23T11:40:52.722Z,39.20
2019-03-23T11:43:14.631Z,37.10
2019-03-23T11:45:43.097Z,36.10
2019-03-23T11:48:11.562Z,35.70
2019-03-23T11:50:40.120Z,34.90
2019-03-23T11:53:08.580Z,33.60
2019-03-23T11:55:37.073Z,32.90
2019-03-23T11:58:05.612Z,32.40
2019-03-23T12:00:34.318Z,32.00
2019-03-23T12:03:02.852Z,32.00
2019-03-23T12:05:31.420Z,31.90
2019-03-23T12:07:59.883Z,31.80
2019-03-23T12:10:28.347Z,32.70
2019-03-23T12:12:56.835Z,32.90
2019-03-23T12:15:25.302Z,34.30
2019-03-23T12:17:53.864Z,35.10
2019-03-23T12:20:22.401Z,35.60
2019-03-23T12:22:50.939Z,35.80
2019-03-23T12:25:19.500Z,35.50
2019-03-23T12:27:48.032Z,36.10
2019-03-23T12:30:18.035Z,36.10
2019-03-23T12:32:46.682Z,36.30
2019-03-23T12:35:15.314Z,35.80
2019-03-23T12:37:43.920Z,34.50
2019-03-23T12:40:12.895Z,33.60
2019-03-23T12:42:41.672Z,32.70
2019-03-23T12:45:11.150Z,32.00
2019-03-23T12:47:39.639Z,31.30
2019-03-23T12:50:10.142Z,30.60
2019-03-23T12:52:38.769Z,30.20
2019-03-23T12:55:07.668Z,30.20
2019-03-23T12:57:36.155Z,30.30
2019-03-23T13:00:10.396Z,30.30
2019-03-23T13:02:38.867Z,30.60
2019-03-23T13:05:07.755Z,30.90
2019-03-23T13:07:36.278Z,31.30
2019-03-23T13:10:07.292Z,32.10
2019-03-23T13:12:35.891Z,32.70
2019-03-23T13:15:06.533Z,33.60
2019-03-23T13:17:35.155Z,33.60
2019-03-23T13:20:04.248Z,33.50
2019-03-23T13:22:33.124Z,33.30
2019-03-23T13:25:01.651Z,33.80
2019-03-23T13:27:30.215Z,34.80
2019-03-23T13:29:58.680Z,36.00
2019-03-23T13:32:27.480Z,37.30
2019-03-23T13:34:56.011Z,37.70
2019-03-23T13:37:24.503Z,37.60
2019-03-23T13:39:52.968Z,37.10
2019-03-23T13:42:21.507Z,36.40
2019-03-23T13:44:49.996Z,36.00
2019-03-23T13:47:18.483Z,36.00
2019-03-23T13:49:47.023Z,35.40
2019-03-23T13:52:15.555Z,34.60
2019-03-23T13:54:44.044Z,34.10
2019-03-23T13:57:12.531Z,33.00
2019-03-23T13:59:41.067Z,31.20
2019-03-23T14:02:09.527Z,30.30
2019-03-23T14:04:38.349Z,29.40
2019-03-23T14:07:06.888Z,28.20
2019-03-23T14:09:35.447Z,28.10
2019-03-23T14:12:03.979Z,28.10
2019-03-23T14:14:32.948Z,28.10
2019-03-23T14:17:01.480Z,27.70
2019-03-23T14:19:29.971Z,27.60
2019-03-23T14:21:58.431Z,27.70
2019-03-23T14:24:26.891Z,27.50
2019-03-23T14:26:55.453Z,27.00
2019-03-23T14:29:23.983Z,26.90
2019-03-23T14:31:52.479Z,26.80
2019-03-23T14:34:21.016Z,26.40
2019-03-23T14:36:49.503Z,26.10
2019-03-23T14:39:17.973Z,26.10
2019-03-23T14:41:46.527Z,26.30
2019-03-23T14:44:14.988Z,26.40
2019-03-23T14:46:43.452Z,26.50
2019-03-23T14:49:11.944Z,26.30
2019-03-23T14:51:40.477Z,26.10
2019-03-23T14:54:08.964Z,25.80
2019-03-23T14:56:37.815Z,25.90
2019-03-23T14:59:06.784Z,26.00
2019-03-23T15:01:35.252Z,25.90
2019-03-23T15:04:04.156Z,25.90
2019-03-23T15:06:32.624Z,25.90
2019-03-23T15:09:01.156Z,25.80
2019-03-23T15:11:29.639Z,25.40
2019-03-23T15:13:58.103Z,25.30
2019-03-23T15:16:26.596Z,25.20
2019-03-23T15:18:55.065Z,24.90
2019-03-23T15:21:23.625Z,25.10
2019-03-23T15:23:52.083Z,25.20
2019-03-23T15:26:20.904Z,25.00
2019-03-23T15:28:49.367Z,24.90
2019-03-23T15:31:17.859Z,24.90
2019-03-23T15:33:46.395Z,25.10
2019-03-23T15:36:14.879Z,25.10
2019-03-23T15:38:43.351Z,25.20
2019-03-23T15:41:11.884Z,25.40
2019-03-23T15:43:40.447Z,25.40
2019-03-23T15:46:08.907Z,25.40
2019-03-23T15:48:37.471Z,25.40
2019-03-23T15:51:06.004Z,25.20
2019-03-23T15:53:34.496Z,25.10
2019-03-23T15:56:02.963Z,24.80
2019-03-23T15:58:31.425Z,24.60
2019-03-23T16:00:59.975Z,24.40
2019-03-23T16:03:28.440Z,24.30
2019-03-23T16:05:57.244Z,24.30
2019-03-23T16:08:25.717Z,24.20
2019-03-23T16:10:54.271Z,24.20
2019-03-23T16:13:22.805Z,24.20
2019-03-23T16:15:51.364Z,24.00
2019-03-23T16:18:19.824Z,23.90
2019-03-23T16:20:48.371Z,23.70
2019-03-23T16:23:16.927Z,23.70
2019-03-23T16:25:45.401Z,23.80
2019-03-23T16:28:13.961Z,23.80
2019-03-23T16:30:42.419Z,23.70
2019-03-23T16:33:10.912Z,23.60
2019-03-23T16:35:39.451Z,23.60
2019-03-23T16:38:07.940Z,23.70
2019-03-23T16:40:36.399Z,23.70
2019-03-23T16:43:06.336Z,23.60
2019-03-23T16:45:35.280Z,23.60
2019-03-23T16:48:03.956Z,23.50
2019-03-23T16:50:32.443Z,23.40
2019-03-23T16:53:00.904Z,23.20
2019-03-23T16:55:29.391Z,23.10
2019-03-23T16:57:57.859Z,22.80
2019-03-23T17:00:35.329Z,22.50
2019-03-23T17:03:04.403Z,22.20
2019-03-23T17:05:32.931Z,22.00
2019-03-23T17:08:01.419Z,21.80
2019-03-23T17:10:29.943Z,21.70
2019-03-23T17:12:58.426Z,21.60
2019-03-23T17:15:26.958Z,21.40
2019-03-23T17:17:55.588Z,21.20
2019-03-23T17:20:24.051Z,21.10
2019-03-23T17:22:52.847Z,20.90
2019-03-23T17:25:21.375Z,20.70
2019-03-23T17:27:49.908Z,20.40
2019-03-23T17:30:18.468Z,20.20
2019-03-23T17:32:47.005Z,20.00
2019-03-23T17:35:15.567Z,19.90
2019-03-23T17:37:44.031Z,19.70
2019-03-23T17:40:12.827Z,19.60
2019-03-23T17:42:41.612Z,19.50
2019-03-23T17:45:10.544Z,19.40
2019-03-23T17:47:39.007Z,19.30
2019-03-23T17:50:07.667Z,19.20
2019-03-23T17:52:36.335Z,19.10
2019-03-23T17:55:06.464Z,18.90
2019-03-23T17:57:35.004Z,18.80
2019-03-23T18:00:08.347Z,18.70
2019-03-23T18:02:37.575Z,18.60
2019-03-23T18:05:07.874Z,18.50
2019-03-23T18:07:36.436Z,18.50
2019-03-23T18:10:07.403Z,18.40
2019-03-23T18:12:35.960Z,18.30
2019-03-23T18:15:07.742Z,18.30
2019-03-23T18:17:36.447Z,18.20
2019-03-23T18:20:06.152Z,18.10
2019-03-23T18:22:34.620Z,18.00
2019-03-23T18:25:03.928Z,17.90
2019-03-23T18:27:32.389Z,17.90
2019-03-23T18:30:01.027Z,17.80
2019-03-23T18:32:29.560Z,17.80
2019-03-23T18:34:58.032Z,17.70
2019-03-23T18:37:26.593Z,17.70
2019-03-23T18:39:55.133Z,17.70
2019-03-23T18:42:23.720Z,17.60
2019-03-23T18:44:52.291Z,17.60
2019-03-23T18:47:20.756Z,17.50
2019-03-23T18:49:49.243Z,17.50
2019-03-23T18:52:17.703Z,17.40
2019-03-23T18:54:46.191Z,17.30
2019-03-23T18:57:15.016Z,17.20
2019-03-23T18:59:43.891Z,17.20
2019-03-23T19:02:12.352Z,17.10
2019-03-23T19:04:40.844Z,17.00
2019-03-23T19:07:09.304Z,16.90
2019-03-23T19:09:37.844Z,16.80
2019-03-23T19:12:06.403Z,16.70
2019-03-23T19:14:34.868Z,16.60
2019-03-23T19:17:03.353Z,16.50
2019-03-23T19:19:31.816Z,16.50
2019-03-23T19:22:00.299Z,16.50
2019-03-23T19:24:28.838Z,16.40
2019-03-23T19:26:57.327Z,16.30
2019-03-23T19:29:27.641Z,16.20
2019-03-23T19:31:55.999Z,16.20
2019-03-23T19:34:24.535Z,16.10
2019-03-23T19:36:53.025Z,16.00
2019-03-23T19:39:21.851Z,15.90
2019-03-23T19:41:50.339Z,15.80
2019-03-23T19:44:18.904Z,15.70
2019-03-23T19:46:47.371Z,15.60
2019-03-23T19:49:15.930Z,15.60
2019-03-23T19:51:44.394Z,15.50
2019-03-23T19:54:13.276Z,15.40
2019-03-23T19:56:42.139Z,15.30
2019-03-23T19:59:10.628Z,15.30
2019-03-23T20:01:39.091Z,15.30
2019-03-23T20:04:07.575Z,15.20
2019-03-23T20:06:36.107Z,15.20
2019-03-23T20:09:07.084Z,15.20
2019-03-23T20:11:35.623Z,15.20
2019-03-23T20:14:04.525Z,15.10
2019-03-23T20:16:33.012Z,15.10
2019-03-23T20:19:01.472Z,15.00
2019-03-23T20:21:29.955Z,15.00
2019-03-23T20:23:58.496Z,14.90
2019-03-23T20:26:27.134Z,14.80
2019-03-23T20:28:55.663Z,14.80
2019-03-23T20:31:24.151Z,14.70
2019-03-23T20:33:52.610Z,14.60
2019-03-23T20:36:21.430Z,14.60
2019-03-23T20:38:50.359Z,14.50
2019-03-23T20:41:18.826Z,14.40
2019-03-23T20:43:47.315Z,14.40
2019-03-23T20:46:15.848Z,14.30
2019-03-23T20:48:45.128Z,14.20
2019-03-23T20:51:14.364Z,14.20
2019-03-23T20:53:43.096Z,14.10
2019-03-23T20:56:11.559Z,14.00
2019-03-23T20:58:40.046Z,14.00
2019-03-23T21:01:08.509Z,13.90
2019-03-23T21:03:37.001Z,13.80
2019-03-23T21:06:05.534Z,13.80
2019-03-23T21:08:34.476Z,13.70
2019-03-23T21:11:02.968Z,13.60
2019-03-23T21:13:31.431Z,13.50
2019-03-23T21:15:59.928Z,13.40
2019-03-23T21:18:28.392Z,13.40
2019-03-23T21:20:56.924Z,13.30
2019-03-23T21:23:25.478Z,13.30
2019-03-23T21:25:54.007Z,13.20
2019-03-23T21:28:22.564Z,13.20
2019-03-23T21:30:51.022Z,13.20
2019-03-23T21:33:19.512Z,13.10
2019-03-23T21:35:47.978Z,13.10
2019-03-23T21:38:16.513Z,13.00
2019-03-23T21:40:45.004Z,13.00
2019-03-23T21:43:13.464Z,12.90
2019-03-23T21:45:41.956Z,12.80
2019-03-23T21:48:10.587Z,12.70
2019-03-23T21:50:47.056Z,12.70
2019-03-23T21:53:09.264Z,12.60
2019-03-23T21:55:37.828Z,12.60
2019-03-23T21:58:06.427Z,12.60
2019-03-23T22:00:35.759Z,12.50
2019-03-23T22:03:04.927Z,12.50
2019-03-23T22:05:33.455Z,12.40
2019-03-23T22:08:02.016Z,12.30
2019-03-23T22:10:30.479Z,12.30
2019-03-23T22:12:58.963Z,12.30
2019-03-23T22:15:29.211Z,12.20
2019-03-23T22:17:57.839Z,12.20
2019-03-23T22:20:26.367Z,12.10
2019-03-23T22:22:55.161Z,12.00
2019-03-23T22:25:23.952Z,12.00
2019-03-23T22:27:52.421Z,11.90
2019-03-23T22:30:20.976Z,11.80
2019-03-23T22:32:49.782Z,11.80
2019-03-23T22:35:18.348Z,11.80
2019-03-23T22:37:46.884Z,11.70
2019-03-23T22:40:15.516Z,11.70
2019-03-23T22:42:44.054Z,11.70
2019-03-23T22:45:12.747Z,11.60
2019-03-23T22:47:41.592Z,11.60
2019-03-23T22:50:10.432Z,11.50
2019-03-23T22:52:38.991Z,11.50
2019-03-23T22:55:07.588Z,11.40
2019-03-23T22:57:36.075Z,11.40
2019-03-23T23:00:10.567Z,11.30
2019-03-23T23:02:39.459Z,11.30
2019-03-23T23:05:08.163Z,11.20
2019-03-23T23:07:36.701Z,11.20
2019-03-23T23:10:08.627Z,11.10
2019-03-23T23:12:37.091Z,11.20
2019-03-23T23:15:07.623Z,11.10
2019-03-23T23:17:36.087Z,11.10
2019-03-23T23:20:08.071Z,11.10
2019-03-23T23:22:36.551Z,11.10
2019-03-23T23:25:08.561Z,11.00
2019-03-23T23:27:37.534Z,11.00
2019-03-23T23:30:10.512Z,10.90
2019-03-23T23:32:39.343Z,10.90
2019-03-23T23:35:09.352Z,10.80
2019-03-23T23:37:37.981Z,10.80
2019-03-23T23:40:07.192Z,10.70
2019-03-23T23:42:36.345Z,10.70
2019-03-23T23:45:15.481Z,10.70
2019-03-23T23:47:37.508Z,10.60
2019-03-23T23:50:07.675Z,10.60
2019-03-23T23:52:36.155Z,10.60
2019-03-23T23:55:06.355Z,10.60
2019-03-23T23:57:34.988Z,10.50
